sensor_id;sensor_type;location;lat;lon;timestamp;temperature;humidity
4324;DHT22;2175;51.018;6.994;2022-09-09T00:00:25;18.00;99.90
4324;DHT22;2175;51.018;6.994;2022-09-09T00:06:32;18.10;99.90
4324;DHT22;2175;51.018;6.994;2022-09-09T00:08:44;18.20;99.90
4324;DHT22;2175;51.018;6.994;2022-09-09T00:11:19;18.20;99.90
4324;DHT22;2175;51.018;6.994;2022-09-09T00:13:52;18.30;99.90
4324;DHT22;2175;51.018;6.994;2022-09-09T00:16:27;18.40;99.90
4324;DHT22;2175;51.018;6.994;2022-09-09T00:19:16;18.30;99.90
4324;DHT22;2175;51.018;6.994;2022-09-09T00:27:35;18.30;99.90
4324;DHT22;2175;51.018;6.994;2022-09-09T00:30:11;18.20;99.90
4324;DHT22;2175;51.018;6.994;2022-09-09T00:32:37;18.20;99.90
4324;DHT22;2175;51.018;6.994;2022-09-09T00:35:18;18.10;99.90
4324;DHT22;2175;51.018;6.994;2022-09-09T00:37:48;18.10;99.90
4324;DHT22;2175;51.018;6.994;2022-09-09T00:40:33;18.10;99.90
4324;DHT22;2175;51.018;6.994;2022-09-09T00:46:05;17.80;99.90
4324;DHT22;2175;51.018;6.994;2022-09-09T00:48:53;17.80;99.90
4324;DHT22;2175;51.018;6.994;2022-09-09T00:57:03;17.90;99.90
4324;DHT22;2175;51.018;6.994;2022-09-09T00:59:50;17.90;99.90
4324;DHT22;2175;51.018;6.994;2022-09-09T01:02:30;17.90;99.90
4324;DHT22;2175;51.018;6.994;2022-09-09T01:05:23;17.90;99.90
4324;DHT22;2175;51.018;6.994;2022-09-09T01:07:52;17.90;99.90
4324;DHT22;2175;51.018;6.994;2022-09-09T01:10:49;17.80;99.90
4324;DHT22;2175;51.018;6.994;2022-09-09T01:13:29;17.80;99.90
4324;DHT22;2175;51.018;6.994;2022-09-09T01:16:00;17.80;99.90
4324;DHT22;2175;51.018;6.994;2022-09-09T01:19:00;17.70;99.90
4324;DHT22;2175;51.018;6.994;2022-09-09T01:21:50;17.70;99.90
4324;DHT22;2175;51.018;6.994;2022-09-09T01:25:07;17.80;99.90
4324;DHT22;2175;51.018;6.994;2022-09-09T01:27:15;17.70;99.90
4324;DHT22;2175;51.018;6.994;2022-09-09T01:29:42;17.80;99.90
4324;DHT22;2175;51.018;6.994;2022-09-09T01:32:41;17.80;99.90
4324;DHT22;2175;51.018;6.994;2022-09-09T01:35:37;17.80;99.90
4324;DHT22;2175;51.018;6.994;2022-09-09T01:37:59;17.80;99.90
4324;DHT22;2175;51.018;6.994;2022-09-09T01:40:25;17.80;99.90
4324;DHT22;2175;51.018;6.994;2022-09-09T01:42:52;17.80;99.90
4324;DHT22;2175;51.018;6.994;2022-09-09T01:45:18;17.80;99.90
4324;DHT22;2175;51.018;6.994;2022-09-09T01:47:45;17.80;99.90
4324;DHT22;2175;51.018;6.994;2022-09-09T01:50:13;17.80;99.90
4324;DHT22;2175;51.018;6.994;2022-09-09T01:52:40;17.80;99.90
4324;DHT22;2175;51.018;6.994;2022-09-09T01:55:06;17.80;99.90
4324;DHT22;2175;51.018;6.994;2022-09-09T02:00:42;17.80;99.90
4324;DHT22;2175;51.018;6.994;2022-09-09T02:05:43;17.90;99.90
4324;DHT22;2175;51.018;6.994;2022-09-09T02:08:17;18.00;99.90
4324;DHT22;2175;51.018;6.994;2022-09-09T02:10:47;18.00;99.90
4324;DHT22;2175;51.018;6.994;2022-09-09T02:13:20;18.00;99.90
4324;DHT22;2175;51.018;6.994;2022-09-09T02:18:33;18.00;99.90
4324;DHT22;2175;51.018;6.994;2022-09-09T02:21:00;17.90;99.90
4324;DHT22;2175;51.018;6.994;2022-09-09T02:23:28;17.90;99.90
4324;DHT22;2175;51.018;6.994;2022-09-09T02:25:56;17.80;99.90
4324;DHT22;2175;51.018;6.994;2022-09-09T02:28:25;17.80;99.90
4324;DHT22;2175;51.018;6.994;2022-09-09T02:30:53;17.80;99.90
4324;DHT22;2175;51.018;6.994;2022-09-09T02:33:22;17.90;99.90
4324;DHT22;2175;51.018;6.994;2022-09-09T02:35:51;17.90;99.90
4324;DHT22;2175;51.018;6.994;2022-09-09T02:38:18;17.90;99.90
4324;DHT22;2175;51.018;6.994;2022-09-09T02:40:45;18.00;99.90
4324;DHT22;2175;51.018;6.994;2022-09-09T02:43:11;18.00;99.90
4324;DHT22;2175;51.018;6.994;2022-09-09T02:45:42;18.00;99.90
4324;DHT22;2175;51.018;6.994;2022-09-09T02:51:47;17.90;99.90
4324;DHT22;2175;51.018;6.994;2022-09-09T02:54:09;17.90;99.90
4324;DHT22;2175;51.018;6.994;2022-09-09T02:56:40;17.90;99.90
4324;DHT22;2175;51.018;6.994;2022-09-09T02:59:08;17.80;99.90
4324;DHT22;2175;51.018;6.994;2022-09-09T03:01:33;17.90;99.90
4324;DHT22;2175;51.018;6.994;2022-09-09T03:04:01;17.90;99.90
4324;DHT22;2175;51.018;6.994;2022-09-09T03:06:27;18.00;99.90
4324;DHT22;2175;51.018;6.994;2022-09-09T03:08:53;18.00;99.90
4324;DHT22;2175;51.018;6.994;2022-09-09T03:11:19;18.00;99.90
4324;DHT22;2175;51.018;6.994;2022-09-09T03:13:44;18.00;99.90
4324;DHT22;2175;51.018;6.994;2022-09-09T03:16:10;17.90;99.90
4324;DHT22;2175;51.018;6.994;2022-09-09T03:18:36;17.90;99.90
4324;DHT22;2175;51.018;6.994;2022-09-09T03:21:01;17.90;99.90
4324;DHT22;2175;51.018;6.994;2022-09-09T03:23:27;18.00;99.90
4324;DHT22;2175;51.018;6.994;2022-09-09T03:25:53;17.90;99.90
4324;DHT22;2175;51.018;6.994;2022-09-09T03:28:22;17.90;99.90
4324;DHT22;2175;51.018;6.994;2022-09-09T03:30:48;17.90;99.90
4324;DHT22;2175;51.018;6.994;2022-09-09T03:33:14;17.90;99.90
4324;DHT22;2175;51.018;6.994;2022-09-09T03:35:45;18.00;99.90
4324;DHT22;2175;51.018;6.994;2022-09-09T03:38:12;17.90;99.90
4324;DHT22;2175;51.018;6.994;2022-09-09T03:40:38;17.90;99.90
4324;DHT22;2175;51.018;6.994;2022-09-09T03:43:04;17.90;99.90
4324;DHT22;2175;51.018;6.994;2022-09-09T03:45:30;18.00;99.90
4324;DHT22;2175;51.018;6.994;2022-09-09T03:47:55;18.00;99.90
4324;DHT22;2175;51.018;6.994;2022-09-09T03:50:22;18.00;99.90
4324;DHT22;2175;51.018;6.994;2022-09-09T03:52:48;18.00;99.90
4324;DHT22;2175;51.018;6.994;2022-09-09T03:55:14;18.00;99.90
4324;DHT22;2175;51.018;6.994;2022-09-09T03:57:39;17.90;99.90
4324;DHT22;2175;51.018;6.994;2022-09-09T04:00:06;17.90;99.90
4324;DHT22;2175;51.018;6.994;2022-09-09T04:02:32;17.90;99.90
4324;DHT22;2175;51.018;6.994;2022-09-09T04:04:58;17.90;99.90
4324;DHT22;2175;51.018;6.994;2022-09-09T04:07:25;17.90;99.90
4324;DHT22;2175;51.018;6.994;2022-09-09T04:09:52;17.90;99.90
4324;DHT22;2175;51.018;6.994;2022-09-09T04:12:19;17.80;99.90
4324;DHT22;2175;51.018;6.994;2022-09-09T04:14:46;17.80;99.90
4324;DHT22;2175;51.018;6.994;2022-09-09T04:17:12;17.80;99.90
4324;DHT22;2175;51.018;6.994;2022-09-09T04:19:37;17.80;99.90
4324;DHT22;2175;51.018;6.994;2022-09-09T04:22:03;17.80;99.90
4324;DHT22;2175;51.018;6.994;2022-09-09T04:24:28;17.80;99.90
4324;DHT22;2175;51.018;6.994;2022-09-09T04:26:54;17.80;99.90
4324;DHT22;2175;51.018;6.994;2022-09-09T04:29:20;17.80;99.90
4324;DHT22;2175;51.018;6.994;2022-09-09T04:31:46;17.80;99.90
4324;DHT22;2175;51.018;6.994;2022-09-09T04:34:12;17.80;99.90
4324;DHT22;2175;51.018;6.994;2022-09-09T04:36:37;17.80;99.90
4324;DHT22;2175;51.018;6.994;2022-09-09T04:39:04;17.80;99.90
4324;DHT22;2175;51.018;6.994;2022-09-09T04:41:30;17.90;99.90
4324;DHT22;2175;51.018;6.994;2022-09-09T04:43:57;17.90;99.90
4324;DHT22;2175;51.018;6.994;2022-09-09T04:46:23;17.90;99.90
4324;DHT22;2175;51.018;6.994;2022-09-09T04:48:49;17.90;99.90
4324;DHT22;2175;51.018;6.994;2022-09-09T04:51:15;17.80;99.90
4324;DHT22;2175;51.018;6.994;2022-09-09T04:53:41;17.80;99.90
4324;DHT22;2175;51.018;6.994;2022-09-09T04:56:12;17.80;99.90
4324;DHT22;2175;51.018;6.994;2022-09-09T04:58:39;17.80;99.90
4324;DHT22;2175;51.018;6.994;2022-09-09T05:01:10;17.80;99.90
4324;DHT22;2175;51.018;6.994;2022-09-09T05:03:36;17.70;99.90
4324;DHT22;2175;51.018;6.994;2022-09-09T05:06:07;17.70;99.90
4324;DHT22;2175;51.018;6.994;2022-09-09T05:08:34;17.70;99.90
4324;DHT22;2175;51.018;6.994;2022-09-09T05:11:00;17.70;99.90
4324;DHT22;2175;51.018;6.994;2022-09-09T05:13:27;17.70;99.90
4324;DHT22;2175;51.018;6.994;2022-09-09T05:15:54;17.60;99.90
4324;DHT22;2175;51.018;6.994;2022-09-09T05:18:19;17.70;99.90
4324;DHT22;2175;51.018;6.994;2022-09-09T05:20:45;17.70;99.90
4324;DHT22;2175;51.018;6.994;2022-09-09T05:23:11;17.80;99.90
4324;DHT22;2175;51.018;6.994;2022-09-09T05:25:39;17.80;99.90
4324;DHT22;2175;51.018;6.994;2022-09-09T05:28:05;17.70;99.90
4324;DHT22;2175;51.018;6.994;2022-09-09T05:30:33;17.70;99.90
4324;DHT22;2175;51.018;6.994;2022-09-09T05:32:59;17.70;99.90
4324;DHT22;2175;51.018;6.994;2022-09-09T05:35:25;17.70;99.90
4324;DHT22;2175;51.018;6.994;2022-09-09T05:37:50;17.60;99.90
4324;DHT22;2175;51.018;6.994;2022-09-09T05:40:16;17.60;99.90
4324;DHT22;2175;51.018;6.994;2022-09-09T05:42:42;17.60;99.90
4324;DHT22;2175;51.018;6.994;2022-09-09T05:45:08;17.60;99.90
4324;DHT22;2175;51.018;6.994;2022-09-09T05:47:35;17.60;99.90
4324;DHT22;2175;51.018;6.994;2022-09-09T05:50:01;17.60;99.90
4324;DHT22;2175;51.018;6.994;2022-09-09T05:52:26;17.50;99.90
4324;DHT22;2175;51.018;6.994;2022-09-09T05:54:52;17.60;99.90
4324;DHT22;2175;51.018;6.994;2022-09-09T05:57:20;17.60;99.90
4324;DHT22;2175;51.018;6.994;2022-09-09T05:59:46;17.60;99.90
4324;DHT22;2175;51.018;6.994;2022-09-09T06:02:11;17.60;99.90
4324;DHT22;2175;51.018;6.994;2022-09-09T06:04:38;17.60;99.90
4324;DHT22;2175;51.018;6.994;2022-09-09T06:07:05;17.60;99.90
4324;DHT22;2175;51.018;6.994;2022-09-09T06:09:31;17.60;99.90
4324;DHT22;2175;51.018;6.994;2022-09-09T06:11:57;17.60;99.90
4324;DHT22;2175;51.018;6.994;2022-09-09T06:14:24;17.70;99.90
4324;DHT22;2175;51.018;6.994;2022-09-09T06:16:51;17.70;99.90
4324;DHT22;2175;51.018;6.994;2022-09-09T06:19:16;17.70;99.90
4324;DHT22;2175;51.018;6.994;2022-09-09T06:21:42;17.80;99.90
4324;DHT22;2175;51.018;6.994;2022-09-09T06:24:09;17.80;99.90
4324;DHT22;2175;51.018;6.994;2022-09-09T06:26:38;17.90;99.90
4324;DHT22;2175;51.018;6.994;2022-09-09T06:29:07;17.90;99.90
4324;DHT22;2175;51.018;6.994;2022-09-09T06:31:34;17.90;99.90
4324;DHT22;2175;51.018;6.994;2022-09-09T06:34:04;17.90;99.90
4324;DHT22;2175;51.018;6.994;2022-09-09T06:36:32;18.00;99.90
4324;DHT22;2175;51.018;6.994;2022-09-09T06:38:58;18.00;99.90
4324;DHT22;2175;51.018;6.994;2022-09-09T06:41:27;18.00;99.90
4324;DHT22;2175;51.018;6.994;2022-09-09T06:43:53;18.00;99.90
4324;DHT22;2175;51.018;6.994;2022-09-09T06:46:23;18.10;99.90
4324;DHT22;2175;51.018;6.994;2022-09-09T06:48:52;18.10;99.90
4324;DHT22;2175;51.018;6.994;2022-09-09T06:51:22;18.10;99.90
4324;DHT22;2175;51.018;6.994;2022-09-09T06:53:51;18.10;99.90
4324;DHT22;2175;51.018;6.994;2022-09-09T06:58:43;18.30;99.90
4324;DHT22;2175;51.018;6.994;2022-09-09T07:01:10;18.30;99.90
4324;DHT22;2175;51.018;6.994;2022-09-09T07:03:38;18.50;99.90
4324;DHT22;2175;51.018;6.994;2022-09-09T07:06:05;18.60;99.90
4324;DHT22;2175;51.018;6.994;2022-09-09T07:08:31;18.80;99.90
4324;DHT22;2175;51.018;6.994;2022-09-09T07:11:05;18.80;99.90
4324;DHT22;2175;51.018;6.994;2022-09-09T07:13:31;18.80;99.90
4324;DHT22;2175;51.018;6.994;2022-09-09T07:16:09;18.90;99.90
4324;DHT22;2175;51.018;6.994;2022-09-09T07:18:35;19.00;99.90
4324;DHT22;2175;51.018;6.994;2022-09-09T07:21:02;19.20;99.90
4324;DHT22;2175;51.018;6.994;2022-09-09T07:23:29;19.30;99.90
4324;DHT22;2175;51.018;6.994;2022-09-09T07:25:55;19.50;99.90
4324;DHT22;2175;51.018;6.994;2022-09-09T07:28:22;19.50;99.90
4324;DHT22;2175;51.018;6.994;2022-09-09T07:30:56;19.60;99.90
4324;DHT22;2175;51.018;6.994;2022-09-09T07:33:22;19.50;99.90
4324;DHT22;2175;51.018;6.994;2022-09-09T07:35:50;19.50;99.90
4324;DHT22;2175;51.018;6.994;2022-09-09T07:38:15;19.40;99.90
4324;DHT22;2175;51.018;6.994;2022-09-09T07:40:41;19.50;99.90
4324;DHT22;2175;51.018;6.994;2022-09-09T07:43:07;19.60;99.90
4324;DHT22;2175;51.018;6.994;2022-09-09T07:45:34;19.70;99.90
4324;DHT22;2175;51.018;6.994;2022-09-09T07:48:00;19.80;99.90
4324;DHT22;2175;51.018;6.994;2022-09-09T07:50:26;20.20;99.90
4324;DHT22;2175;51.018;6.994;2022-09-09T07:52:52;20.60;99.90
4324;DHT22;2175;51.018;6.994;2022-09-09T07:55:19;21.00;99.90
4324;DHT22;2175;51.018;6.994;2022-09-09T07:57:45;21.00;99.90
4324;DHT22;2175;51.018;6.994;2022-09-09T08:00:11;20.80;99.90
4324;DHT22;2175;51.018;6.994;2022-09-09T08:02:37;21.00;99.90
4324;DHT22;2175;51.018;6.994;2022-09-09T08:05:03;21.10;99.90
4324;DHT22;2175;51.018;6.994;2022-09-09T08:07:29;20.80;99.90
4324;DHT22;2175;51.018;6.994;2022-09-09T08:09:55;20.60;99.90
4324;DHT22;2175;51.018;6.994;2022-09-09T08:12:21;20.30;99.90
4324;DHT22;2175;51.018;6.994;2022-09-09T08:14:47;20.10;99.90
4324;DHT22;2175;51.018;6.994;2022-09-09T08:17:13;20.00;99.90
4324;DHT22;2175;51.018;6.994;2022-09-09T08:19:39;19.90;99.90
4324;DHT22;2175;51.018;6.994;2022-09-09T08:22:05;19.90;99.90
4324;DHT22;2175;51.018;6.994;2022-09-09T08:24:30;19.90;99.90
4324;DHT22;2175;51.018;6.994;2022-09-09T08:26:56;19.90;99.90
4324;DHT22;2175;51.018;6.994;2022-09-09T08:29:22;19.90;99.90
4324;DHT22;2175;51.018;6.994;2022-09-09T08:31:50;19.90;99.90
4324;DHT22;2175;51.018;6.994;2022-09-09T08:34:18;19.90;99.90
4324;DHT22;2175;51.018;6.994;2022-09-09T08:36:48;19.90;99.90
4324;DHT22;2175;51.018;6.994;2022-09-09T08:39:16;19.90;99.90
4324;DHT22;2175;51.018;6.994;2022-09-09T08:42:13;20.00;99.90
4324;DHT22;2175;51.018;6.994;2022-09-09T08:47:49;20.00;99.90
4324;DHT22;2175;51.018;6.994;2022-09-09T08:50:25;20.10;99.90
4324;DHT22;2175;51.018;6.994;2022-09-09T08:53:16;20.20;99.90
4324;DHT22;2175;51.018;6.994;2022-09-09T08:55:51;20.50;99.90
4324;DHT22;2175;51.018;6.994;2022-09-09T08:58:28;20.40;99.90
4324;DHT22;2175;51.018;6.994;2022-09-09T09:03:44;20.30;99.90
4324;DHT22;2175;51.018;6.994;2022-09-09T09:11:50;20.30;99.90
4324;DHT22;2175;51.018;6.994;2022-09-09T09:14:26;20.30;99.90
4324;DHT22;2175;51.018;6.994;2022-09-09T09:16:57;20.50;99.90
4324;DHT22;2175;51.018;6.994;2022-09-09T09:19:24;20.80;99.90
4324;DHT22;2175;51.018;6.994;2022-09-09T09:22:06;20.90;99.90
4324;DHT22;2175;51.018;6.994;2022-09-09T09:27:16;21.10;99.90
4324;DHT22;2175;51.018;6.994;2022-09-09T09:29:44;20.90;99.90
4324;DHT22;2175;51.018;6.994;2022-09-09T09:32:14;20.70;99.90
4324;DHT22;2175;51.018;6.994;2022-09-09T09:34:41;20.60;99.90
4324;DHT22;2175;51.018;6.994;2022-09-09T09:37:16;20.60;99.90
4324;DHT22;2175;51.018;6.994;2022-09-09T09:39:45;20.60;99.90
4324;DHT22;2175;51.018;6.994;2022-09-09T09:42:16;20.50;99.90
4324;DHT22;2175;51.018;6.994;2022-09-09T09:44:43;20.40;99.90
4324;DHT22;2175;51.018;6.994;2022-09-09T09:47:17;20.30;99.90
4324;DHT22;2175;51.018;6.994;2022-09-09T09:49:59;20.30;99.90
4324;DHT22;2175;51.018;6.994;2022-09-09T09:52:27;20.20;99.90
4324;DHT22;2175;51.018;6.994;2022-09-09T09:54:55;20.10;99.90
4324;DHT22;2175;51.018;6.994;2022-09-09T09:57:26;20.20;99.90
4324;DHT22;2175;51.018;6.994;2022-09-09T10:00:11;20.30;99.90
4324;DHT22;2175;51.018;6.994;2022-09-09T10:02:40;20.40;99.90
4324;DHT22;2175;51.018;6.994;2022-09-09T10:07:46;20.80;99.90
4324;DHT22;2175;51.018;6.994;2022-09-09T10:10:23;20.90;99.90
4324;DHT22;2175;51.018;6.994;2022-09-09T10:13:05;20.90;99.90
4324;DHT22;2175;51.018;6.994;2022-09-09T10:15:58;21.10;99.90
4324;DHT22;2175;51.018;6.994;2022-09-09T10:18:49;21.00;99.90
4324;DHT22;2175;51.018;6.994;2022-09-09T10:24:30;21.00;99.90
4324;DHT22;2175;51.018;6.994;2022-09-09T10:27:10;21.00;99.90
4324;DHT22;2175;51.018;6.994;2022-09-09T10:52:21;20.60;99.90
4324;DHT22;2175;51.018;6.994;2022-09-09T10:55:09;20.60;99.90
4324;DHT22;2175;51.018;6.994;2022-09-09T10:57:48;20.90;99.90
4324;DHT22;2175;51.018;6.994;2022-09-09T11:00:22;21.00;99.90
4324;DHT22;2175;51.018;6.994;2022-09-09T11:02:59;21.10;99.90
4324;DHT22;2175;51.018;6.994;2022-09-09T11:05:41;21.20;99.90
4324;DHT22;2175;51.018;6.994;2022-09-09T11:08:20;21.30;99.90
4324;DHT22;2175;51.018;6.994;2022-09-09T11:11:04;21.20;99.90
4324;DHT22;2175;51.018;6.994;2022-09-09T11:13:57;21.20;99.90
4324;DHT22;2175;51.018;6.994;2022-09-09T11:17:09;21.60;99.90
4324;DHT22;2175;51.018;6.994;2022-09-09T11:19:38;21.70;99.90
4324;DHT22;2175;51.018;6.994;2022-09-09T11:22:32;21.70;99.90
4324;DHT22;2175;51.018;6.994;2022-09-09T11:25:23;21.70;99.90
4324;DHT22;2175;51.018;6.994;2022-09-09T11:36:38;21.20;99.90
4324;DHT22;2175;51.018;6.994;2022-09-09T11:39:35;21.20;99.90
4324;DHT22;2175;51.018;6.994;2022-09-09T11:44:37;21.10;99.90
4324;DHT22;2175;51.018;6.994;2022-09-09T11:47:03;21.00;99.90
4324;DHT22;2175;51.018;6.994;2022-09-09T11:49:42;21.00;99.90
4324;DHT22;2175;51.018;6.994;2022-09-09T11:52:12;21.00;99.90
4324;DHT22;2175;51.018;6.994;2022-09-09T11:54:47;21.00;99.90
4324;DHT22;2175;51.018;6.994;2022-09-09T11:57:26;21.10;99.90
4324;DHT22;2175;51.018;6.994;2022-09-09T11:59:56;21.10;99.90
4324;DHT22;2175;51.018;6.994;2022-09-09T12:02:27;21.10;99.90
4324;DHT22;2175;51.018;6.994;2022-09-09T12:05:00;21.10;99.90
4324;DHT22;2175;51.018;6.994;2022-09-09T12:07:55;21.10;99.90
4324;DHT22;2175;51.018;6.994;2022-09-09T12:10:35;21.00;99.90
4324;DHT22;2175;51.018;6.994;2022-09-09T12:13:15;21.00;99.90
4324;DHT22;2175;51.018;6.994;2022-09-09T12:15:53;21.00;99.90
4324;DHT22;2175;51.018;6.994;2022-09-09T12:18:35;20.90;99.90
4324;DHT22;2175;51.018;6.994;2022-09-09T12:24:40;20.90;99.90
4324;DHT22;2175;51.018;6.994;2022-09-09T12:26:41;20.80;99.90
4324;DHT22;2175;51.018;6.994;2022-09-09T12:32:07;20.80;99.90
4324;DHT22;2175;51.018;6.994;2022-09-09T12:34:46;20.90;99.90
4324;DHT22;2175;51.018;6.994;2022-09-09T12:39:57;21.10;99.90
4324;DHT22;2175;51.018;6.994;2022-09-09T12:42:25;21.30;99.90
4324;DHT22;2175;51.018;6.994;2022-09-09T12:45:02;21.30;99.90
4324;DHT22;2175;51.018;6.994;2022-09-09T12:47:53;21.20;99.90
4324;DHT22;2175;51.018;6.994;2022-09-09T12:50:23;21.10;99.90
4324;DHT22;2175;51.018;6.994;2022-09-09T12:52:53;21.00;99.90
4324;DHT22;2175;51.018;6.994;2022-09-09T12:55:21;20.90;99.90
4324;DHT22;2175;51.018;6.994;2022-09-09T12:57:51;20.90;99.90
4324;DHT22;2175;51.018;6.994;2022-09-09T13:00:23;20.80;99.90
4324;DHT22;2175;51.018;6.994;2022-09-09T13:02:55;20.80;99.90
4324;DHT22;2175;51.018;6.994;2022-09-09T13:05:26;20.70;99.90
4324;DHT22;2175;51.018;6.994;2022-09-09T13:08:00;20.70;99.90
4324;DHT22;2175;51.018;6.994;2022-09-09T13:10:29;20.70;99.90
4324;DHT22;2175;51.018;6.994;2022-09-09T13:12:56;21.00;99.90
4324;DHT22;2175;51.018;6.994;2022-09-09T13:15:24;21.20;99.90
4324;DHT22;2175;51.018;6.994;2022-09-09T13:17:57;21.40;99.90
4324;DHT22;2175;51.018;6.994;2022-09-09T13:20:24;21.50;99.90
4324;DHT22;2175;51.018;6.994;2022-09-09T13:22:52;21.60;99.90
4324;DHT22;2175;51.018;6.994;2022-09-09T13:25:27;21.40;99.90
4324;DHT22;2175;51.018;6.994;2022-09-09T13:27:57;21.30;99.90
4324;DHT22;2175;51.018;6.994;2022-09-09T13:30:30;21.10;99.90
4324;DHT22;2175;51.018;6.994;2022-09-09T13:33:18;21.10;99.90
4324;DHT22;2175;51.018;6.994;2022-09-09T13:35:55;21.00;99.90
4324;DHT22;2175;51.018;6.994;2022-09-09T13:38:21;20.90;99.90
4324;DHT22;2175;51.018;6.994;2022-09-09T13:41:07;20.60;99.90
4324;DHT22;2175;51.018;6.994;2022-09-09T13:43:38;20.50;99.90
4324;DHT22;2175;51.018;6.994;2022-09-09T13:48:56;20.40;99.90
4324;DHT22;2175;51.018;6.994;2022-09-09T13:51:40;20.30;99.90
4324;DHT22;2175;51.018;6.994;2022-09-09T13:54:10;20.40;99.90
4324;DHT22;2175;51.018;6.994;2022-09-09T13:56:37;20.50;99.90
4324;DHT22;2175;51.018;6.994;2022-09-09T13:59:04;20.60;99.90
4324;DHT22;2175;51.018;6.994;2022-09-09T14:01:30;20.50;99.90
4324;DHT22;2175;51.018;6.994;2022-09-09T14:03:56;20.70;99.90
4324;DHT22;2175;51.018;6.994;2022-09-09T14:06:22;20.90;99.90
4324;DHT22;2175;51.018;6.994;2022-09-09T14:08:52;21.00;99.90
4324;DHT22;2175;51.018;6.994;2022-09-09T14:11:18;20.90;99.90
4324;DHT22;2175;51.018;6.994;2022-09-09T14:13:44;20.80;99.90
4324;DHT22;2175;51.018;6.994;2022-09-09T14:16:10;20.80;99.90
4324;DHT22;2175;51.018;6.994;2022-09-09T14:18:36;20.80;99.90
4324;DHT22;2175;51.018;6.994;2022-09-09T14:21:03;20.70;99.90
4324;DHT22;2175;51.018;6.994;2022-09-09T14:23:28;20.60;99.90
4324;DHT22;2175;51.018;6.994;2022-09-09T14:25:55;20.30;99.90
4324;DHT22;2175;51.018;6.994;2022-09-09T14:28:21;20.00;99.90
4324;DHT22;2175;51.018;6.994;2022-09-09T14:30:47;19.90;99.90
4324;DHT22;2175;51.018;6.994;2022-09-09T14:33:15;19.40;99.90
4324;DHT22;2175;51.018;6.994;2022-09-09T14:35:41;19.00;99.90
4324;DHT22;2175;51.018;6.994;2022-09-09T14:38:08;18.80;99.90
4324;DHT22;2175;51.018;6.994;2022-09-09T14:40:35;18.50;99.90
4324;DHT22;2175;51.018;6.994;2022-09-09T14:43:00;18.40;99.90
4324;DHT22;2175;51.018;6.994;2022-09-09T14:45:26;18.20;99.90
4324;DHT22;2175;51.018;6.994;2022-09-09T14:47:52;18.20;99.90
4324;DHT22;2175;51.018;6.994;2022-09-09T14:50:19;18.00;99.90
4324;DHT22;2175;51.018;6.994;2022-09-09T14:52:45;17.90;99.90
4324;DHT22;2175;51.018;6.994;2022-09-09T14:55:11;17.80;99.90
4324;DHT22;2175;51.018;6.994;2022-09-09T14:57:37;17.80;99.90
4324;DHT22;2175;51.018;6.994;2022-09-09T15:00:05;17.80;99.90
4324;DHT22;2175;51.018;6.994;2022-09-09T15:02:31;17.90;99.90
4324;DHT22;2175;51.018;6.994;2022-09-09T15:04:56;18.00;99.90
4324;DHT22;2175;51.018;6.994;2022-09-09T15:07:26;18.10;99.90
4324;DHT22;2175;51.018;6.994;2022-09-09T15:09:55;18.20;99.90
4324;DHT22;2175;51.018;6.994;2022-09-09T15:12:21;18.40;99.90
4324;DHT22;2175;51.018;6.994;2022-09-09T15:14:47;18.50;99.90
4324;DHT22;2175;51.018;6.994;2022-09-09T15:17:13;18.60;99.90
4324;DHT22;2175;51.018;6.994;2022-09-09T15:19:39;18.50;99.90
4324;DHT22;2175;51.018;6.994;2022-09-09T15:22:05;18.50;99.90
4324;DHT22;2175;51.018;6.994;2022-09-09T15:24:32;18.60;99.90
4324;DHT22;2175;51.018;6.994;2022-09-09T15:26:58;18.60;99.90
4324;DHT22;2175;51.018;6.994;2022-09-09T15:29:24;18.80;99.90
4324;DHT22;2175;51.018;6.994;2022-09-09T15:31:53;18.80;99.90
4324;DHT22;2175;51.018;6.994;2022-09-09T15:34:21;18.70;99.90
4324;DHT22;2175;51.018;6.994;2022-09-09T15:36:46;18.70;99.90
4324;DHT22;2175;51.018;6.994;2022-09-09T15:39:14;18.80;99.90
4324;DHT22;2175;51.018;6.994;2022-09-09T15:41:47;18.80;99.90
4324;DHT22;2175;51.018;6.994;2022-09-09T15:44:14;18.90;99.90
4324;DHT22;2175;51.018;6.994;2022-09-09T15:46:52;18.80;99.90
4324;DHT22;2175;51.018;6.994;2022-09-09T15:49:24;18.80;99.90
4324;DHT22;2175;51.018;6.994;2022-09-09T15:51:53;18.90;99.90
4324;DHT22;2175;51.018;6.994;2022-09-09T15:54:21;18.70;99.90
4324;DHT22;2175;51.018;6.994;2022-09-09T15:56:57;18.90;99.90
4324;DHT22;2175;51.018;6.994;2022-09-09T15:59:24;18.80;99.90
4324;DHT22;2175;51.018;6.994;2022-09-09T16:01:50;18.90;99.90
4324;DHT22;2175;51.018;6.994;2022-09-09T16:04:19;18.90;99.90
4324;DHT22;2175;51.018;6.994;2022-09-09T16:06:53;18.90;99.90
4324;DHT22;2175;51.018;6.994;2022-09-09T16:09:19;18.90;99.90
4324;DHT22;2175;51.018;6.994;2022-09-09T16:11:45;19.00;99.90
4324;DHT22;2175;51.018;6.994;2022-09-09T16:14:13;19.10;99.90
4324;DHT22;2175;51.018;6.994;2022-09-09T16:16:39;19.10;99.90
4324;DHT22;2175;51.018;6.994;2022-09-09T16:19:12;19.10;61.00
4324;DHT22;2175;51.018;6.994;2022-09-09T16:21:43;19.10;84.10
4324;DHT22;2175;51.018;6.994;2022-09-09T16:24:11;19.10;25.40
4324;DHT22;2175;51.018;6.994;2022-09-09T16:26:38;19.00;23.80
4324;DHT22;2175;51.018;6.994;2022-09-09T16:29:04;18.90;64.20
4324;DHT22;2175;51.018;6.994;2022-09-09T16:31:30;18.90;24.90
4324;DHT22;2175;51.018;6.994;2022-09-09T16:33:57;18.90;89.30
4324;DHT22;2175;51.018;6.994;2022-09-09T16:36:27;18.80;19.40
4324;DHT22;2175;51.018;6.994;2022-09-09T16:38:54;18.80;78.40
4324;DHT22;2175;51.018;6.994;2022-09-09T16:41:21;18.70;47.30
4324;DHT22;2175;51.018;6.994;2022-09-09T16:43:52;18.60;57.60
4324;DHT22;2175;51.018;6.994;2022-09-09T16:46:19;18.60;7.00
4324;DHT22;2175;51.018;6.994;2022-09-09T16:48:46;18.70;73.40
4324;DHT22;2175;51.018;6.994;2022-09-09T16:51:15;18.70;47.70
4324;DHT22;2175;51.018;6.994;2022-09-09T16:53:41;18.70;34.50
4324;DHT22;2175;51.018;6.994;2022-09-09T16:56:10;18.70;31.90
4324;DHT22;2175;51.018;6.994;2022-09-09T16:58:36;18.70;54.90
4324;DHT22;2175;51.018;6.994;2022-09-09T17:01:02;18.60;48.50
4324;DHT22;2175;51.018;6.994;2022-09-09T17:03:28;18.70;52.40
4324;DHT22;2175;51.018;6.994;2022-09-09T17:05:54;18.60;87.60
4324;DHT22;2175;51.018;6.994;2022-09-09T17:08:20;18.60;68.10
4324;DHT22;2175;51.018;6.994;2022-09-09T17:10:45;18.60;47.80
4324;DHT22;2175;51.018;6.994;2022-09-09T17:13:12;18.60;99.90
4324;DHT22;2175;51.018;6.994;2022-09-09T17:15:42;18.50;90.20
4324;DHT22;2175;51.018;6.994;2022-09-09T17:18:12;18.50;96.10
4324;DHT22;2175;51.018;6.994;2022-09-09T17:20:39;18.40;99.90
4324;DHT22;2175;51.018;6.994;2022-09-09T17:23:06;18.30;99.90
4324;DHT22;2175;51.018;6.994;2022-09-09T17:25:31;18.40;99.90
4324;DHT22;2175;51.018;6.994;2022-09-09T17:27:58;18.30;99.90
4324;DHT22;2175;51.018;6.994;2022-09-09T17:30:23;18.30;99.90
4324;DHT22;2175;51.018;6.994;2022-09-09T17:32:49;18.20;99.90
4324;DHT22;2175;51.018;6.994;2022-09-09T17:35:15;18.10;99.90
4324;DHT22;2175;51.018;6.994;2022-09-09T17:37:41;18.10;99.90
4324;DHT22;2175;51.018;6.994;2022-09-09T17:40:07;18.10;99.90
4324;DHT22;2175;51.018;6.994;2022-09-09T17:42:34;18.00;99.90
4324;DHT22;2175;51.018;6.994;2022-09-09T17:45:00;18.10;99.90
4324;DHT22;2175;51.018;6.994;2022-09-09T17:47:26;18.10;99.90
4324;DHT22;2175;51.018;6.994;2022-09-09T17:49:53;18.00;99.90
4324;DHT22;2175;51.018;6.994;2022-09-09T17:52:19;18.10;99.90
4324;DHT22;2175;51.018;6.994;2022-09-09T17:54:44;18.10;99.90
4324;DHT22;2175;51.018;6.994;2022-09-09T17:57:10;18.10;99.90